الصفحة الرئيسية
METAR-TAF:

METAR-TAF

مطار :

مطار الرباط سلا

الرباط, المغرب

دائرة عرض: 34-03N, خط طول: 006-46W, ارتفاع: 84 متر

مراقبة الطقس الحالي

تاريخ ووقت الإصدار 10 دقيقة قبل الساعة 14:00UTC
ريح 8 عقدة من الغرب, الاتجاه يتراوح بين الغرب/الجنوب الغربي و الشمال الغربي
درجة الحرارة 15°درجة مئوية
الرطوبة 67%
ضغط 1012 hPa
الرؤية: 6000 متر
غيوم متفرقة على ارتفاع 1600 قدم

METAR: GMME 211400Z 28008KT 240V310 6000 SCT016 15/09 Q1012 NOSIG

زمن: 15:10 (14:10 UTC)

توقعات

تاريخ ووقت الإصدار 3ساعات و 10 دقيقة قبل الساعة 11:00UTC
التوقعات صالحة من21 الساعة 12 UTC إلى 22 الساعة 18 UTC
ريح 7 عقدة من الغرب/الشمال الغربي
الرؤية: 6000 متر
غيوم متفرقة على ارتفاع 1600 قدم
أصبح
من 21 الساعة 18 UTC إلى 21 الساعة 20 UTC
ريح 10 عقدة من الشرق/الجنوب الشرقي
مؤقت
من 22 الساعة 12 UTC إلى 22 الساعة 18 UTC
ريح 12 عقدة من الجنوب/الجنوب الشرقي تتزايد حتى 24 عقدة
غيوم مفككة على ارتفاع 1600 قدم
غيوم متفرقة على ارتفاع 2300 قدم, مزن ركامية عمودية.
زخات من المطر

TAF: GMME 211100Z 2112/2218 30007KT 6000 SCT016 BECMG 2118/2120 12010KT TEMPO 2212/2218 15012G24KT SHRA BKN016 SCT023TCU

أرصاد الطقس والتوقعات من أكثر من 4000 مطار (تقارير الطقس للمطار METAR والتنبؤ بالطقس بالمطارTAF).

المحطات المتاحة هي النقط الصفراء والحمراء على الخريطة.

حرك المؤشر فوق النقطة لمعرفة اسم المحطة.

ثم انقر لمعرفة أرصاد وتوقعات الطقس.

لتغيير الخارطة: اضغط على الأزرار الخضراء مع رمز الصليب الأسود للتكبير. على الزر الأخضر مع شرطة للتصغير، أو على الأسهم الخضراء للخرائط المجاورة.


METAR-TAF: